createdAt,value
2017-05-05T00:00:59.130Z,0
2017-05-05T00:02:08.017Z,0
2017-05-05T00:03:17.327Z,0
2017-05-05T00:04:26.211Z,0
2017-05-05T00:05:35.751Z,0
2017-05-05T00:06:44.965Z,0
2017-05-05T00:07:54.181Z,0
2017-05-05T00:09:04.094Z,0
2017-05-05T00:10:12.979Z,0
2017-05-05T00:11:22.515Z,0
2017-05-05T00:12:31.401Z,0
2017-05-05T00:13:40.609Z,0
2017-05-05T00:14:50.076Z,0
2017-05-05T00:15:58.965Z,0
2017-05-05T00:17:07.849Z,0
2017-05-05T00:18:17.058Z,0
2017-05-05T00:19:25.948Z,0
2017-05-05T00:20:35.310Z,0
2017-05-05T00:21:44.197Z,0
2017-05-05T00:22:53.077Z,0
2017-05-05T00:24:01.962Z,0
2017-05-05T00:25:11.178Z,0
2017-05-05T00:26:20.865Z,0
2017-05-05T00:27:29.751Z,0
2017-05-05T00:28:38.985Z,0
2017-05-05T00:29:49.183Z,0
2017-05-05T00:30:58.718Z,0
2017-05-05T00:32:08.281Z,0
2017-05-05T00:33:17.497Z,0
2017-05-05T00:34:27.362Z,0
2017-05-05T00:35:36.250Z,0
2017-05-05T00:36:45.783Z,0
2017-05-05T00:37:55.144Z,0
2017-05-05T00:39:04.357Z,0
2017-05-05T00:40:13.246Z,0
2017-05-05T00:41:22.130Z,0
2017-05-05T00:42:31.344Z,0
2017-05-05T00:43:40.881Z,0
2017-05-05T00:44:50.744Z,0
2017-05-05T00:45:59.633Z,0
2017-05-05T00:47:08.843Z,0
2017-05-05T00:48:18.379Z,0
2017-05-05T00:49:28.215Z,0
2017-05-05T00:50:37.431Z,0
2017-05-05T00:51:46.966Z,0
2017-05-05T00:52:56.501Z,0
2017-05-05T00:54:05.713Z,0
2017-05-05T00:55:14.926Z,0
2017-05-05T00:56:23.810Z,0
2017-05-05T00:57:32.697Z,0
2017-05-05T00:58:41.589Z,0
2017-05-05T00:59:50.804Z,0
2017-05-05T01:01:00.551Z,0
2017-05-05T01:02:09.436Z,0
2017-05-05T01:03:18.967Z,0
2017-05-05T01:04:28.506Z,0
2017-05-05T01:05:37.714Z,0
2017-05-05T01:06:46.602Z,0
2017-05-05T01:07:55.821Z,0
2017-05-05T01:09:05.037Z,0
2017-05-05T01:10:14.246Z,0
2017-05-05T01:11:23.463Z,0
2017-05-05T01:12:32.827Z,0
2017-05-05T01:13:42.040Z,0
2017-05-05T01:14:50.931Z,0
2017-05-05T01:16:00.791Z,0
2017-05-05T01:17:10.003Z,0
2017-05-05T01:18:19.263Z,0
2017-05-05T01:19:28.472Z,0
2017-05-05T01:20:37.360Z,0
2017-05-05T01:21:46.575Z,0
2017-05-05T01:22:56.108Z,0
2017-05-05T01:24:05.468Z,0
2017-05-05T01:25:14.354Z,0
2017-05-05T01:26:23.244Z,0
2017-05-05T01:27:32.127Z,0
2017-05-05T01:28:41.012Z,0
2017-05-05T01:29:50.149Z,0
2017-05-05T01:30:59.372Z,0
2017-05-05T01:32:08.256Z,0
2017-05-05T01:33:17.794Z,0
2017-05-05T01:34:27.661Z,0
2017-05-05T01:35:36.852Z,0
2017-05-05T01:36:46.061Z,0
2017-05-05T01:37:55.267Z,0
2017-05-05T01:39:04.478Z,0
2017-05-05T01:40:13.689Z,0
2017-05-05T01:41:23.276Z,0
2017-05-05T01:42:32.485Z,0
2017-05-05T01:43:41.698Z,0
2017-05-05T01:44:51.238Z,0
2017-05-05T01:46:00.773Z,0
2017-05-05T01:47:09.807Z,0
2017-05-05T01:48:19.378Z,0
2017-05-05T01:49:28.591Z,0
2017-05-05T01:50:37.800Z,0
2017-05-05T01:51:46.682Z,0
2017-05-05T01:52:55.996Z,0
2017-05-05T01:54:04.889Z,0
2017-05-05T01:55:13.780Z,0
2017-05-05T01:56:22.991Z,0
2017-05-05T01:57:31.879Z,0
2017-05-05T01:58:41.719Z,0
2017-05-05T01:59:51.587Z,0
2017-05-05T02:01:01.127Z,0
2017-05-05T02:02:10.012Z,0
2017-05-05T02:03:19.551Z,0
2017-05-05T02:04:28.913Z,0
2017-05-05T02:05:37.800Z,0
2017-05-05T02:06:47.365Z,0
2017-05-05T02:07:56.579Z,0
2017-05-05T02:09:05.796Z,0
2017-05-05T02:10:15.715Z,0
2017-05-05T02:11:25.249Z,0
2017-05-05T02:12:34.136Z,0
2017-05-05T02:13:43.678Z,0
2017-05-05T02:14:53.538Z,0
2017-05-05T02:16:02.572Z,0
2017-05-05T02:17:11.466Z,0
2017-05-05T02:18:20.355Z,0
2017-05-05T02:19:29.884Z,0
2017-05-05T02:20:38.769Z,0
2017-05-05T02:21:47.754Z,0
2017-05-05T02:22:57.289Z,0
2017-05-05T02:24:06.495Z,0
2017-05-05T02:25:16.032Z,0
2017-05-05T02:26:24.915Z,0
2017-05-05T02:27:34.060Z,0
2017-05-05T02:28:43.601Z,0
2017-05-05T02:29:52.489Z,0
2017-05-05T02:31:01.698Z,0
2017-05-05T02:32:10.585Z,0
2017-05-05T02:33:19.622Z,0
2017-05-05T02:34:28.838Z,0
2017-05-05T02:35:37.731Z,0
2017-05-05T02:36:46.947Z,0
2017-05-05T02:37:55.833Z,0
2017-05-05T02:39:04.869Z,0
2017-05-05T02:40:14.076Z,0
2017-05-05T02:41:22.960Z,0
2017-05-05T02:42:31.849Z,0
2017-05-05T02:43:41.073Z,0
2017-05-05T02:44:50.593Z,0
2017-05-05T02:45:59.806Z,0
2017-05-05T02:47:08.695Z,0
2017-05-05T02:48:17.905Z,0
2017-05-05T02:49:27.113Z,0
2017-05-05T02:50:36.001Z,0
2017-05-05T02:51:45.215Z,0
2017-05-05T02:52:54.757Z,0
2017-05-05T02:54:03.976Z,0
2017-05-05T02:55:13.196Z,0
2017-05-05T02:56:22.078Z,0
2017-05-05T02:57:31.288Z,0
2017-05-05T02:58:40.836Z,0
2017-05-05T02:59:50.050Z,0
2017-05-05T03:00:59.591Z,0
2017-05-05T03:02:08.623Z,0
2017-05-05T03:03:17.839Z,0
2017-05-05T03:04:27.701Z,0
2017-05-05T03:05:36.591Z,0
2017-05-05T03:06:45.478Z,0
2017-05-05T03:07:54.467Z,0
2017-05-05T03:09:03.350Z,0
2017-05-05T03:10:12.564Z,0
2017-05-05T03:11:21.778Z,0
2017-05-05T03:12:30.989Z,0
2017-05-05T03:13:39.924Z,0
2017-05-05T03:14:49.466Z,0
2017-05-05T03:15:58.677Z,0
2017-05-05T03:17:07.887Z,0
2017-05-05T03:18:16.782Z,4
2017-05-05T03:19:26.971Z,4
2017-05-05T03:20:36.510Z,4
2017-05-05T03:21:45.399Z,4
2017-05-05T03:22:54.616Z,4
2017-05-05T03:24:03.831Z,4
2017-05-05T03:25:12.720Z,4
2017-05-05T03:26:21.607Z,4
2017-05-05T03:27:30.817Z,8
2017-05-05T03:28:40.029Z,8
2017-05-05T03:29:49.246Z,8
2017-05-05T03:30:58.712Z,8
2017-05-05T03:32:07.942Z,12
2017-05-05T03:33:17.153Z,12
2017-05-05T03:34:26.369Z,16
2017-05-05T03:35:35.254Z,16
2017-05-05T03:36:44.552Z,20
2017-05-05T03:37:54.415Z,24
2017-05-05T03:39:03.626Z,28
2017-05-05T03:40:12.506Z,32
2017-05-05T03:41:21.718Z,32
2017-05-05T03:42:30.755Z,36
2017-05-05T03:43:39.643Z,40
2017-05-05T03:44:48.857Z,40
2017-05-05T03:45:57.743Z,44
2017-05-05T03:47:06.626Z,48
2017-05-05T03:48:15.812Z,52
2017-05-05T03:49:25.027Z,52
2017-05-05T03:50:34.235Z,52
2017-05-05T03:51:43.145Z,52
2017-05-05T03:52:52.679Z,56
2017-05-05T03:54:02.845Z,60
2017-05-05T03:55:11.728Z,68
2017-05-05T03:56:20.946Z,72
2017-05-05T03:57:30.156Z,80
2017-05-05T03:58:39.043Z,88
2017-05-05T03:59:49.057Z,104
2017-05-05T04:00:57.942Z,120
2017-05-05T04:02:07.150Z,132
2017-05-05T04:03:16.365Z,144
2017-05-05T04:04:25.578Z,144
2017-05-05T04:05:34.941Z,148
2017-05-05T04:06:44.160Z,144
2017-05-05T04:07:53.050Z,160
2017-05-05T04:09:02.265Z,172
2017-05-05T04:10:11.153Z,192
2017-05-05T04:11:20.790Z,208
2017-05-05T04:12:30.001Z,220
2017-05-05T04:13:38.895Z,236
2017-05-05T04:14:48.435Z,240
2017-05-05T04:15:57.973Z,244
2017-05-05T04:17:07.388Z,280
2017-05-05T04:18:16.279Z,296
2017-05-05T04:19:25.490Z,272
2017-05-05T04:20:35.351Z,324
2017-05-05T04:21:44.561Z,324
2017-05-05T04:22:53.447Z,348
2017-05-05T04:24:03.634Z,368
2017-05-05T04:25:12.521Z,372
2017-05-05T04:26:21.407Z,408
2017-05-05T04:27:30.630Z,424
2017-05-05T04:28:40.321Z,388
2017-05-05T04:29:49.204Z,428
2017-05-05T04:30:58.738Z,436
2017-05-05T04:32:07.620Z,464
2017-05-05T04:33:16.501Z,464
2017-05-05T04:34:26.138Z,472
2017-05-05T04:35:35.346Z,476
2017-05-05T04:36:44.555Z,472
2017-05-05T04:37:54.099Z,564
2017-05-05T04:39:03.958Z,556
2017-05-05T04:40:13.327Z,588
2017-05-05T04:41:22.212Z,584
2017-05-05T04:42:31.428Z,532
2017-05-05T04:43:40.642Z,624
2017-05-05T04:44:49.528Z,532
2017-05-05T04:45:59.210Z,576
2017-05-05T04:47:08.426Z,584
2017-05-05T04:48:17.640Z,604
2017-05-05T04:49:26.855Z,620
2017-05-05T04:50:36.397Z,576
2017-05-05T04:51:45.662Z,512
2017-05-05T04:52:54.551Z,588
2017-05-05T04:54:03.760Z,532
2017-05-05T04:55:12.974Z,596
2017-05-05T04:56:22.508Z,644
2017-05-05T04:57:32.140Z,692
2017-05-05T04:58:41.393Z,736
2017-05-05T04:59:50.617Z,732
2017-05-05T05:00:59.505Z,748
2017-05-05T05:02:09.369Z,740
2017-05-05T05:03:18.809Z,748
2017-05-05T05:04:28.674Z,800
2017-05-05T05:05:37.561Z,776
2017-05-05T05:06:46.776Z,788
2017-05-05T05:07:55.984Z,780
2017-05-05T05:09:05.398Z,748
2017-05-05T05:10:14.619Z,624
2017-05-05T05:11:23.507Z,752
2017-05-05T05:12:32.393Z,748
2017-05-05T05:13:41.285Z,676
2017-05-05T05:14:51.028Z,688
2017-05-05T05:15:59.924Z,744
2017-05-05T05:17:08.816Z,780
2017-05-05T05:18:17.706Z,744
2017-05-05T05:19:26.607Z,760
2017-05-05T05:20:36.777Z,924
2017-05-05T05:21:45.992Z,944
2017-05-05T05:22:55.532Z,980
2017-05-05T05:24:04.425Z,964
2017-05-05T05:25:13.970Z,868
2017-05-05T05:26:23.188Z,1016
2017-05-05T05:27:32.730Z,1020
2017-05-05T05:28:42.267Z,1112
2017-05-05T05:29:51.811Z,1196
2017-05-05T05:31:00.701Z,1108
2017-05-05T05:32:09.594Z,1064
2017-05-05T05:33:18.820Z,1300
2017-05-05T05:34:28.041Z,1264
2017-05-05T05:35:36.930Z,1180
2017-05-05T05:36:45.825Z,1060
2017-05-05T05:37:55.366Z,1324
2017-05-05T05:39:04.584Z,1260
2017-05-05T05:40:13.800Z,1252
2017-05-05T05:41:22.690Z,1340
2017-05-05T05:42:31.583Z,1248
2017-05-05T05:43:40.469Z,1436
2017-05-05T05:44:49.366Z,1368
2017-05-05T05:45:58.580Z,1376
2017-05-05T05:47:07.497Z,1504
2017-05-05T05:48:16.389Z,1440
2017-05-05T05:49:25.958Z,1464
2017-05-05T05:50:35.175Z,1548
2017-05-05T05:51:45.093Z,1544
2017-05-05T05:52:53.978Z,1528
2017-05-05T05:54:02.878Z,1460
2017-05-05T05:55:12.095Z,1256
2017-05-05T05:56:21.308Z,1316
2017-05-05T05:57:30.241Z,1328
2017-05-05T05:58:39.457Z,1356
2017-05-05T05:59:48.683Z,1464
2017-05-05T06:00:57.569Z,1692
2017-05-05T06:02:06.781Z,1612
2017-05-05T06:03:16.420Z,1840
2017-05-05T06:04:25.304Z,2132
2017-05-05T06:05:34.206Z,1900
2017-05-05T06:06:43.419Z,1816
2017-05-05T06:07:52.308Z,1772
2017-05-05T06:09:01.849Z,2132
2017-05-05T06:10:11.109Z,2140
2017-05-05T06:11:20.319Z,1860
2017-05-05T06:12:29.535Z,1972
2017-05-05T06:13:38.786Z,1944
2017-05-05T06:14:48.667Z,1996
2017-05-05T06:15:57.903Z,2092
2017-05-05T06:17:06.789Z,1908
2017-05-05T06:18:16.350Z,2100
2017-05-05T06:19:25.563Z,1872
2017-05-05T06:20:34.554Z,2132
2017-05-05T06:21:43.444Z,1784
2017-05-05T06:22:52.331Z,1992
2017-05-05T06:24:01.220Z,1904
2017-05-05T06:25:10.115Z,1772
2017-05-05T06:26:19.490Z,1700
2017-05-05T06:27:28.733Z,1776
2017-05-05T06:28:37.949Z,1912
2017-05-05T06:29:47.492Z,1908
2017-05-05T06:30:56.381Z,2184
2017-05-05T06:32:05.379Z,2200
2017-05-05T06:33:14.294Z,2424
2017-05-05T06:34:24.153Z,2644
2017-05-05T06:35:33.370Z,2756
2017-05-05T06:36:42.582Z,2488
2017-05-05T06:37:51.621Z,2628
2017-05-05T06:39:00.840Z,3508
2017-05-05T06:40:10.105Z,3652
2017-05-05T06:41:19.322Z,3496
2017-05-05T06:42:28.213Z,3140
2017-05-05T06:43:37.577Z,3316
2017-05-05T06:44:46.470Z,3544
2017-05-05T06:45:56.010Z,3120
2017-05-05T06:47:04.910Z,3600
2017-05-05T06:48:13.801Z,3884
2017-05-05T06:49:23.065Z,3904
2017-05-05T06:50:32.279Z,4436
2017-05-05T06:51:41.168Z,4100
2017-05-05T06:52:50.384Z,4400
2017-05-05T06:53:59.612Z,3120
2017-05-05T06:55:08.620Z,3620
2017-05-05T06:56:17.511Z,2904
2017-05-05T06:57:26.398Z,2856
2017-05-05T06:58:35.939Z,3308
2017-05-05T06:59:45.159Z,2524
2017-05-05T07:00:54.778Z,2568
2017-05-05T07:02:03.682Z,2972
2017-05-05T07:03:12.894Z,3160
2017-05-05T07:04:22.106Z,2792
2017-05-05T07:05:31.002Z,1992
2017-05-05T07:06:40.520Z,1748
2017-05-05T07:07:49.410Z,2004
2017-05-05T07:08:58.627Z,1936
2017-05-05T07:10:07.538Z,1992
2017-05-05T07:11:16.755Z,2412
2017-05-05T07:12:25.790Z,3176
2017-05-05T07:13:35.675Z,3032
2017-05-05T07:14:44.594Z,2564
2017-05-05T07:15:53.489Z,2640
2017-05-05T07:17:02.716Z,1976
2017-05-05T07:18:11.986Z,1444
2017-05-05T07:19:20.869Z,1248
2017-05-05T07:20:29.757Z,1520
2017-05-05T07:21:38.653Z,2012
2017-05-05T07:22:47.862Z,2348
2017-05-05T07:23:57.134Z,2716
2017-05-05T07:25:07.016Z,3232
2017-05-05T07:26:16.258Z,3072
2017-05-05T07:27:25.802Z,2820
2017-05-05T07:28:35.027Z,2636
2017-05-05T07:29:44.077Z,2540
2017-05-05T07:30:52.971Z,3004
2017-05-05T07:32:01.879Z,2776
2017-05-05T07:33:10.784Z,2984
2017-05-05T07:34:19.672Z,3196
2017-05-05T07:35:28.889Z,2924
2017-05-05T07:36:38.105Z,2912
2017-05-05T07:37:47.651Z,3596
2017-05-05T07:38:56.867Z,2920
2017-05-05T07:40:05.759Z,2240
2017-05-05T07:41:14.772Z,2028
2017-05-05T07:42:23.986Z,2084
2017-05-05T07:43:33.215Z,2464
2017-05-05T07:44:42.756Z,2796
2017-05-05T07:45:51.647Z,3560
2017-05-05T07:47:00.685Z,3524
2017-05-05T07:48:09.905Z,4432
2017-05-05T07:49:18.820Z,3996
2017-05-05T07:50:27.710Z,3816
2017-05-05T07:51:36.924Z,3724
2017-05-05T07:52:46.938Z,3788
2017-05-05T07:53:55.836Z,3112
2017-05-05T07:55:05.707Z,3484
2017-05-05T07:56:14.598Z,3884
2017-05-05T07:57:23.488Z,3716
2017-05-05T07:58:32.486Z,3960
2017-05-05T07:59:41.703Z,4068
2017-05-05T08:00:50.594Z,3732
2017-05-05T08:01:59.488Z,4028
2017-05-05T08:03:08.711Z,3968
2017-05-05T08:04:18.303Z,3744
2017-05-05T08:05:27.196Z,3568
2017-05-05T08:06:36.410Z,3212
2017-05-05T08:07:45.320Z,3152
2017-05-05T08:08:54.537Z,3140
2017-05-05T08:10:03.911Z,3060
2017-05-05T08:11:12.814Z,2908
2017-05-05T08:12:21.701Z,2820
2017-05-05T08:13:30.596Z,2904
2017-05-05T08:14:39.812Z,3688
2017-05-05T08:15:48.855Z,3392
2017-05-05T08:16:58.072Z,3632
2017-05-05T08:18:06.968Z,4040
2017-05-05T08:19:15.869Z,3800
2017-05-05T08:20:24.759Z,3948
2017-05-05T08:21:33.970Z,4076
2017-05-05T08:22:43.182Z,4464
2017-05-05T08:23:52.723Z,4176
2017-05-05T08:25:02.271Z,4188
2017-05-05T08:26:11.494Z,3940
2017-05-05T08:27:20.538Z,3912
2017-05-05T08:28:30.104Z,4044
2017-05-05T08:29:39.004Z,3724
2017-05-05T08:30:48.233Z,4144
2017-05-05T08:31:57.461Z,3936
2017-05-05T08:33:07.910Z,3844
2017-05-05T08:34:16.958Z,3660
2017-05-05T08:35:25.860Z,4404
2017-05-05T08:36:35.399Z,3772
2017-05-05T08:37:44.624Z,3784
2017-05-05T08:38:54.092Z,4304
2017-05-05T08:40:02.983Z,4184
2017-05-05T08:41:12.201Z,4324
2017-05-05T08:42:21.417Z,4764
2017-05-05T08:43:30.310Z,5652
2017-05-05T08:44:39.785Z,4740
2017-05-05T08:45:48.681Z,4340
2017-05-05T08:46:57.569Z,4048
2017-05-05T08:48:06.466Z,3808
2017-05-05T08:49:16.010Z,4484
2017-05-05T08:50:25.216Z,3984
2017-05-05T08:51:34.446Z,4932
2017-05-05T08:52:43.666Z,4852
2017-05-05T08:53:52.877Z,4412
2017-05-05T08:55:01.774Z,4032
2017-05-05T08:56:10.866Z,4736
2017-05-05T08:57:19.758Z,4476
2017-05-05T08:58:29.307Z,4656
2017-05-05T08:59:38.522Z,4672
2017-05-05T09:00:47.414Z,4284
2017-05-05T09:01:56.365Z,3760
2017-05-05T09:03:05.588Z,3476
2017-05-05T09:04:14.811Z,4036
2017-05-05T09:05:24.037Z,3352
2017-05-05T09:06:32.937Z,3168
2017-05-05T09:07:42.035Z,3008
2017-05-05T09:08:51.265Z,3232
2017-05-05T09:10:01.138Z,2940
2017-05-05T09:11:10.363Z,3352
2017-05-05T09:12:19.260Z,3392
2017-05-05T09:13:28.529Z,2580
2017-05-05T09:14:37.751Z,2600
2017-05-05T09:15:46.645Z,3272
2017-05-05T09:16:55.536Z,3356
2017-05-05T09:18:04.427Z,3080
2017-05-05T09:19:13.648Z,3184
2017-05-05T09:20:23.186Z,3264
2017-05-05T09:21:32.413Z,3156
2017-05-05T09:22:41.629Z,3044
2017-05-05T09:23:50.522Z,3700
2017-05-05T09:24:59.887Z,3640
2017-05-05T09:26:09.456Z,3860
2017-05-05T09:27:18.671Z,3620
2017-05-05T09:28:27.892Z,3512
2017-05-05T09:29:37.110Z,3376
2017-05-05T09:30:46.955Z,3772
2017-05-05T09:31:55.852Z,3740
2017-05-05T09:33:05.066Z,3472
2017-05-05T09:34:14.611Z,3924
2017-05-05T09:35:23.826Z,3872
2017-05-05T09:36:33.750Z,4564
2017-05-05T09:37:42.966Z,4456
2017-05-05T09:38:52.183Z,5116
2017-05-05T09:40:01.071Z,4088
2017-05-05T09:41:10.291Z,3684
2017-05-05T09:42:19.662Z,4300
2017-05-05T09:43:28.882Z,4980
2017-05-05T09:44:38.101Z,4792
2017-05-05T09:45:47.314Z,4716
2017-05-05T09:46:56.536Z,4452
2017-05-05T09:48:06.129Z,4200
2017-05-05T09:49:15.355Z,4528
2017-05-05T09:50:24.244Z,4452
2017-05-05T09:51:33.792Z,4264
2017-05-05T09:52:43.008Z,3644
2017-05-05T09:53:52.581Z,3680
2017-05-05T09:55:01.802Z,4016
2017-05-05T09:56:11.016Z,3908
2017-05-05T09:57:19.909Z,3828
2017-05-05T09:58:28.799Z,3612
2017-05-05T09:59:37.750Z,3552
2017-05-05T10:00:46.962Z,3588
2017-05-05T10:01:56.176Z,3756
2017-05-05T10:03:05.391Z,4360
2017-05-05T10:04:14.280Z,5000
2017-05-05T10:05:23.320Z,4688
2017-05-05T10:06:32.217Z,4948
2017-05-05T10:07:41.315Z,5264
2017-05-05T10:08:50.564Z,5000
2017-05-05T10:09:59.785Z,5300
2017-05-05T10:11:09.375Z,5640
2017-05-05T10:12:18.593Z,5872
2017-05-05T10:13:27.484Z,6200
2017-05-05T10:14:36.373Z,6336
2017-05-05T10:15:45.266Z,6200
2017-05-05T10:16:54.211Z,6892
2017-05-05T10:18:03.431Z,6292
2017-05-05T10:19:12.650Z,6568
2017-05-05T10:20:21.541Z,6316
2017-05-05T10:21:30.456Z,7016
2017-05-05T10:22:39.592Z,7040
2017-05-05T10:23:48.822Z,6716
2017-05-05T10:24:57.722Z,6188
2017-05-05T10:26:06.938Z,6052
2017-05-05T10:27:16.160Z,6280
2017-05-05T10:28:25.753Z,6000
2017-05-05T10:29:34.969Z,6532
2017-05-05T10:30:43.864Z,7328
2017-05-05T10:31:52.756Z,5644
2017-05-05T10:33:01.978Z,5288
2017-05-05T10:34:11.769Z,5340
2017-05-05T10:35:20.663Z,5336
2017-05-05T10:36:30.202Z,4764
2017-05-05T10:37:39.089Z,4704
2017-05-05T10:38:48.315Z,4444
2017-05-05T10:39:57.684Z,4248
2017-05-05T10:41:06.907Z,4280
2017-05-05T10:42:15.800Z,4396
2017-05-05T10:43:25.013Z,4472
2017-05-05T10:44:34.234Z,4616
2017-05-05T10:45:43.125Z,5352
2017-05-05T10:46:52.020Z,5616
2017-05-05T10:48:00.912Z,4928
2017-05-05T10:49:10.456Z,5028
2017-05-05T10:50:19.357Z,5188
2017-05-05T10:51:28.946Z,5448
2017-05-05T10:52:38.483Z,5504
2017-05-05T10:53:47.699Z,4980
2017-05-05T10:54:56.915Z,4540
2017-05-05T10:56:05.806Z,4212
2017-05-05T10:57:14.797Z,4660
2017-05-05T10:58:24.026Z,4712
2017-05-05T10:59:32.917Z,4592
2017-05-05T11:00:42.125Z,4172
2017-05-05T11:01:51.028Z,4192
2017-05-05T11:02:59.976Z,4668
2017-05-05T11:04:09.192Z,4192
2017-05-05T11:05:18.079Z,4880
2017-05-05T11:06:27.021Z,4996
2017-05-05T11:07:35.918Z,4376
2017-05-05T11:08:44.970Z,4152
2017-05-05T11:09:54.520Z,3876
2017-05-05T11:11:03.408Z,3812
2017-05-05T11:12:12.300Z,3936
2017-05-05T11:13:21.519Z,4124
2017-05-05T11:14:30.794Z,4516
2017-05-05T11:15:39.685Z,5072
2017-05-05T11:16:48.585Z,5084
2017-05-05T11:17:57.477Z,5144
2017-05-05T11:19:06.693Z,5316
2017-05-05T11:20:15.956Z,5428
2017-05-05T11:21:24.851Z,5344
2017-05-05T11:22:33.750Z,5100
2017-05-05T11:23:42.645Z,5296
2017-05-05T11:24:51.861Z,5212
2017-05-05T11:26:01.505Z,5180
2017-05-05T11:27:10.400Z,5176
2017-05-05T11:28:19.300Z,5192
2017-05-05T11:29:28.517Z,5152
2017-05-05T11:30:37.425Z,5052
2017-05-05T11:31:46.688Z,5240
2017-05-05T11:32:55.587Z,5168
2017-05-05T11:34:04.478Z,5004
2017-05-05T11:35:14.030Z,4880
2017-05-05T11:36:23.250Z,4700
2017-05-05T11:37:32.288Z,4436
2017-05-05T11:38:41.509Z,4064
2017-05-05T11:39:50.408Z,3788
2017-05-05T11:40:59.298Z,4312
2017-05-05T11:42:08.526Z,4192
2017-05-05T11:43:17.841Z,3836
2017-05-05T11:44:27.384Z,3556
2017-05-05T11:45:36.285Z,3304
2017-05-05T11:46:45.175Z,3308
2017-05-05T11:47:54.417Z,3956
2017-05-05T11:49:04.342Z,4348
2017-05-05T11:50:13.567Z,3840
2017-05-05T11:51:22.457Z,3824
2017-05-05T11:52:31.348Z,4132
2017-05-05T11:53:40.250Z,4232
2017-05-05T11:54:49.293Z,4304
2017-05-05T11:55:58.184Z,4564
2017-05-05T11:57:07.093Z,4532
2017-05-05T11:58:16.315Z,4440
2017-05-05T11:59:25.540Z,4320
2017-05-05T12:00:34.563Z,4184
2017-05-05T12:01:43.460Z,4284
2017-05-05T12:02:52.416Z,4220
2017-05-05T12:04:01.695Z,4300
2017-05-05T12:05:10.597Z,4284
2017-05-05T12:06:20.017Z,4380
2017-05-05T12:07:28.921Z,4472
2017-05-05T12:08:37.815Z,4892
2017-05-05T12:09:46.720Z,5212
2017-05-05T12:10:56.273Z,4884
2017-05-05T12:12:05.574Z,4416
2017-05-05T12:13:14.809Z,4560
2017-05-05T12:14:23.729Z,4788
2017-05-05T12:15:32.956Z,4980
2017-05-05T12:16:42.181Z,5240
2017-05-05T12:17:51.234Z,5568
2017-05-05T12:19:00.453Z,5116
2017-05-05T12:20:09.689Z,5752
2017-05-05T12:21:18.918Z,5836
2017-05-05T12:22:27.818Z,6032
2017-05-05T12:23:37.615Z,5800
2017-05-05T12:24:46.551Z,5608
2017-05-05T12:25:55.770Z,6024
2017-05-05T12:27:04.990Z,6392
2017-05-05T12:28:13.883Z,6568
2017-05-05T12:29:23.285Z,6520
2017-05-05T12:30:32.213Z,6616
2017-05-05T12:31:41.134Z,6892
2017-05-05T12:32:50.059Z,6964
2017-05-05T12:33:59.331Z,6548
2017-05-05T12:35:08.640Z,6220
2017-05-05T12:36:17.532Z,6240
2017-05-05T12:37:26.445Z,5656
2017-05-05T12:38:35.665Z,5304
2017-05-05T12:39:44.563Z,6048
2017-05-05T12:40:53.469Z,5896
2017-05-05T12:42:02.711Z,4656
2017-05-05T12:43:11.639Z,3792
2017-05-05T12:44:20.879Z,3664
2017-05-05T12:45:29.779Z,3420
2017-05-05T12:46:38.942Z,3340
2017-05-05T12:47:47.883Z,3276
2017-05-05T12:48:56.799Z,3824
2017-05-05T12:50:06.029Z,3740
2017-05-05T12:51:14.959Z,3728
2017-05-05T12:52:24.288Z,3820
2017-05-05T12:53:33.533Z,3736
2017-05-05T12:54:42.749Z,3644
2017-05-05T12:55:51.644Z,3608
2017-05-05T12:57:00.548Z,3512
2017-05-05T12:58:10.250Z,3708
2017-05-05T12:59:19.169Z,4680
2017-05-05T13:00:28.071Z,5380
2017-05-05T13:01:36.966Z,5608
2017-05-05T13:02:46.198Z,4992
2017-05-05T13:03:55.184Z,4784
2017-05-05T13:05:04.405Z,4832
2017-05-05T13:06:13.649Z,4696
2017-05-05T13:07:22.870Z,4668
2017-05-05T13:08:32.086Z,4580
2017-05-05T13:09:41.453Z,4508
2017-05-05T13:10:50.665Z,4180
2017-05-05T13:11:59.555Z,3876
2017-05-05T13:13:08.444Z,3748
2017-05-05T13:14:17.333Z,3584
2017-05-05T13:15:26.951Z,3532
2017-05-05T13:16:35.844Z,3604
2017-05-05T13:17:45.061Z,3752
2017-05-05T13:18:54.279Z,4036
2017-05-05T13:20:03.166Z,4400
2017-05-05T13:21:12.211Z,4484
2017-05-05T13:22:21.112Z,4256
2017-05-05T13:23:30.332Z,3948
2017-05-05T13:24:39.333Z,4420
2017-05-05T13:25:48.859Z,5148
2017-05-05T13:26:58.554Z,4400
2017-05-05T13:28:07.767Z,3576
2017-05-05T13:29:16.659Z,3304
2017-05-05T13:30:25.550Z,3064
2017-05-05T13:31:34.445Z,2628
2017-05-05T13:32:43.337Z,2488
2017-05-05T13:33:52.578Z,2544
2017-05-05T13:35:01.505Z,2724
2017-05-05T13:36:10.735Z,3072
2017-05-05T13:37:19.630Z,3068
2017-05-05T13:38:28.676Z,3632
2017-05-05T13:39:38.218Z,3956
2017-05-05T13:40:47.462Z,3712
2017-05-05T13:41:56.705Z,3648
2017-05-05T13:43:05.614Z,3296
2017-05-05T13:44:14.854Z,3076
2017-05-05T13:45:23.752Z,3132
2017-05-05T13:46:32.973Z,3160
2017-05-05T13:47:42.193Z,3104
2017-05-05T13:48:51.105Z,3080
2017-05-05T13:50:00.146Z,3248
2017-05-05T13:51:09.382Z,3660
2017-05-05T13:52:18.594Z,3636
2017-05-05T13:53:28.134Z,3868
2017-05-05T13:54:37.684Z,3936
2017-05-05T13:55:47.424Z,4056
2017-05-05T13:56:56.668Z,4196
2017-05-05T13:58:05.576Z,4540
2017-05-05T13:59:14.791Z,4788
2017-05-05T14:00:23.687Z,4504
2017-05-05T14:01:32.918Z,4912
2017-05-05T14:02:41.810Z,4804
2017-05-05T14:03:50.701Z,5148
2017-05-05T14:04:59.929Z,5464
2017-05-05T14:06:09.472Z,5724
2017-05-05T14:07:18.840Z,5908
2017-05-05T14:08:27.734Z,6376
2017-05-05T14:09:36.635Z,6480
2017-05-05T14:10:45.524Z,6292
2017-05-05T14:11:54.747Z,6392
2017-05-05T14:13:04.264Z,6376
2017-05-05T14:14:13.162Z,6440
2017-05-05T14:15:22.708Z,6220
2017-05-05T14:16:31.602Z,5660
2017-05-05T14:17:40.497Z,5052
2017-05-05T14:18:49.539Z,4012
2017-05-05T14:19:59.447Z,4928
2017-05-05T14:21:08.676Z,5268
2017-05-05T14:22:17.569Z,6052
2017-05-05T14:23:26.492Z,6280
2017-05-05T14:24:35.555Z,6136
2017-05-05T14:25:44.456Z,6048
2017-05-05T14:26:53.684Z,5552
2017-05-05T14:28:02.577Z,5032
2017-05-05T14:29:11.476Z,3724
2017-05-05T14:30:20.531Z,3028
2017-05-05T14:31:29.453Z,2804
2017-05-05T14:32:38.342Z,2940
2017-05-05T14:33:47.562Z,3620
2017-05-05T14:34:56.453Z,3560
2017-05-05T14:36:05.644Z,4128
2017-05-05T14:37:14.541Z,4160
2017-05-05T14:38:23.788Z,4476
2017-05-05T14:39:32.689Z,4824
2017-05-05T14:40:42.004Z,4816
2017-05-05T14:41:51.001Z,5452
2017-05-05T14:43:00.225Z,6296
2017-05-05T14:44:09.138Z,6200
2017-05-05T14:45:18.030Z,6452
2017-05-05T14:46:26.929Z,6308
2017-05-05T14:47:35.818Z,6320
2017-05-05T14:48:44.736Z,6064
2017-05-05T14:49:53.646Z,5552
2017-05-05T14:51:02.546Z,5408
2017-05-05T14:52:11.442Z,5228
2017-05-05T14:53:20.673Z,5328
2017-05-05T14:54:29.583Z,5432
2017-05-05T14:55:38.807Z,5520
2017-05-05T14:56:47.706Z,5772
2017-05-05T14:57:56.938Z,5744
2017-05-05T14:59:06.243Z,5872
2017-05-05T15:00:15.481Z,5824
2017-05-05T15:01:24.379Z,6428
2017-05-05T15:02:33.287Z,7428
2017-05-05T15:03:42.845Z,8092
2017-05-05T15:04:51.888Z,8040
2017-05-05T15:06:00.783Z,7520
2017-05-05T15:07:09.679Z,6440
2017-05-05T15:08:18.632Z,4836
2017-05-05T15:09:27.526Z,4980
2017-05-05T15:10:36.621Z,6172
2017-05-05T15:11:46.218Z,6444
2017-05-05T15:12:55.495Z,6140
2017-05-05T15:14:04.416Z,4812
2017-05-05T15:15:13.308Z,4796
2017-05-05T15:16:22.709Z,4892
2017-05-05T15:17:31.929Z,5008
2017-05-05T15:18:40.820Z,4544
2017-05-05T15:19:49.770Z,4184
2017-05-05T15:20:58.752Z,4876
2017-05-05T15:22:07.725Z,5164
2017-05-05T15:23:16.950Z,5804
2017-05-05T15:24:25.846Z,5864
2017-05-05T15:25:35.083Z,4904
2017-05-05T15:26:44.064Z,4080
2017-05-05T15:27:53.230Z,4248
2017-05-05T15:29:02.472Z,4320
2017-05-05T15:30:11.369Z,4300
2017-05-05T15:31:20.278Z,4648
2017-05-05T15:32:29.510Z,4900
2017-05-05T15:33:38.906Z,4984
2017-05-05T15:34:48.125Z,4168
2017-05-05T15:35:57.028Z,4056
2017-05-05T15:37:05.920Z,3896
2017-05-05T15:38:14.813Z,3692
2017-05-05T15:39:23.737Z,3404
2017-05-05T15:40:32.961Z,3104
2017-05-05T15:41:41.852Z,3396
2017-05-05T15:42:51.399Z,3412
2017-05-05T15:44:00.772Z,3368
2017-05-05T15:45:09.687Z,3240
2017-05-05T15:46:18.675Z,3088